In Rescue
 
Open Full Screen Window  High Contrast Mode
Wind Gusting 18 knots
10
May 27, 2024 2:49 PM EDT
Weather Information
Wind Direction
  260 °
Wind Speed
  10 kt (12 mph)
Wind Gust
  18 kt (21 mph)
Altimeter
29.64 in
Visibility
10 SM
Temperature
14° C
57° F
Dewpoint
12° C
54° F
Humidity
88%
Sky Condition
Overcast @ 1,100 ft
MVFR

METAR KRMY 271849Z AUTO 26010G18KT 10SM OVC011 14/12 A2964 RMK AO2 T01410116

FAA Disclaimer: The data displayed is for advisory purposes only and is not to be used for flight planning or operations.